KMJQ

Jackson Municipal Airport

Jackson, Minnesota, USA
METAR KMJQ 140435Z 19006KT 10SM OVC065 M02/M06 A3037 RMK AO2 PWINO
Observed Flight Rules
Nov-14 @ 04:35 UTC (13 minutes ago) Visual Flight Rules
Wind Visibility Clouds
190° at 6 knots 10 miles
  • Overcast at 6,500' AGL
Temperatures Readings
Current -2°C / 28°F
Dewpoint -6°C / 21°F
Humidity 74%
Altimeter 30.37" Hg
Pressure 1028 hPa
Elevation 441
METAR KMJQ 140435Z 19006KT 10SM OVC065 M02/M06 A3037 RMK AO2 PWINO
Observed Flight Rules
Nov-14 @ 04:35 UTC
(13 minutes ago)
VFR
Wind Visibility
190° at 6 knots 10 miles
Clouds
  • Overcast at 6,500' AGL
Temperature Dewpoint
-2°C / 28°F -6°C / 21°F
Humidity Altimeter Pressure
74% 30.37" Hg 1028 hPa